Elko Regional Airport
KEKO : now visible

Airfield :











YOU CAN JOIN US ON...

 
LOGIN :

Register | Disclaimer

   EN    FR    IT 

 









Legend :    VFR   Marginal VFR   IFR   Intensive IFR   Very Intensive IFR
Visi :
Ceiling :
>= 8 km
>= 3000ft
5 to 8 km
1000 to 3000 ft
1500m to 5 km
500 to 1000 ft
800 to 1500m
200 to 500 ft
< 800m
< 200 ft
Symbols :   Thunderstorms  Fog  Heavy snow  Heavy precipitations  Wind > 20 kt






- Airport Elevation : 5140 ft
- IATA code : EKO


KEKO - Elko Regional

CURRENT METAR :
  • 172007Z AUTO 34014KT 10SM BKN070 02/M12 A3012 RMK AO2 WSHFT 1947 T00221117

EXPIRED METARs :
  • 171956Z AUTO 31014G19KT 10SM SCT075 04/M11 A3012 RMK AO2 SLP206 T00391106
  • 171856Z AUTO 28007KT 10SM CLR 03/M09 A3012 RMK AO2 SLP209 T00331094
  • 171756Z AUTO 18004KT 10SM CLR 02/M06 A3012 RMK AO2 SLP207 T00171061 10017 21067 58001

TAF KEKO
Valid from the 17 at 18:00 until the 18 at 18:00 UTC


171730Z 1718/1818 VRB06KT P6SM SCT200
FM172000 32012G22KT P6SM SCT050
FM180100 05003KT P6SM SKC



MET'MAP, your aeronautical weather chart ! - Copyright ORBIFLY December 2007 - Disclaimer

ORBIFLY MET'MAP TEAM :

Programming & Development : Alexandra Zaïnal
Concept & original design : Baudouin d'Aumeries
Assistance for programming : Marc-Olivier Méhu
Technical & hardware support : Manuel Goepfert

Contact : metmap@orbifly.com




SOURCES & CREDITS :

   NOAA       Earth
Advisory